sensor_id;sensor_type;location;lat;lon;timestamp;P1;durP1;ratioP1;P2;durP2;ratioP2
54307;SDS011;40208;39.778;2.710;2023-03-01T00:02:01;34.78;;;6.53;;
54307;SDS011;40208;39.778;2.710;2023-03-01T00:04:46;16.63;;;5.70;;
54307;SDS011;40208;39.778;2.710;2023-03-01T00:07:30;12.23;;;4.32;;
54307;SDS011;40208;39.778;2.710;2023-03-01T00:10:15;28.35;;;12.20;;
54307;SDS011;40208;39.778;2.710;2023-03-01T00:13:01;18.00;;;5.95;;
54307;SDS011;40208;39.778;2.710;2023-03-01T00:15:46;20.10;;;4.07;;
54307;SDS011;40208;39.778;2.710;2023-03-01T00:18:31;38.88;;;15.48;;
54307;SDS011;40208;39.778;2.710;2023-03-01T00:21:17;21.10;;;7.05;;
54307;SDS011;40208;39.778;2.710;2023-03-01T00:24:04;17.02;;;3.65;;
54307;SDS011;40208;39.778;2.710;2023-03-01T00:26:52;12.82;;;3.03;;
54307;SDS011;40208;39.778;2.710;2023-03-01T00:29:39;15.75;;;4.05;;
54307;SDS011;40208;39.778;2.710;2023-03-01T00:32:24;19.50;;;6.35;;
54307;SDS011;40208;39.778;2.710;2023-03-01T00:35:10;31.20;;;8.48;;
54307;SDS011;40208;39.778;2.710;2023-03-01T00:37:56;17.83;;;4.63;;
54307;SDS011;40208;39.778;2.710;2023-03-01T00:40:42;77.70;;;19.98;;
54307;SDS011;40208;39.778;2.710;2023-03-01T00:43:27;29.35;;;7.70;;
54307;SDS011;40208;39.778;2.710;2023-03-01T00:46:13;67.82;;;13.82;;
54307;SDS011;40208;39.778;2.710;2023-03-01T00:49:02;22.15;;;5.28;;
54307;SDS011;40208;39.778;2.710;2023-03-01T00:51:48;20.75;;;4.50;;
54307;SDS011;40208;39.778;2.710;2023-03-01T00:54:33;20.35;;;3.53;;
54307;SDS011;40208;39.778;2.710;2023-03-01T00:57:18;17.30;;;4.45;;
54307;SDS011;40208;39.778;2.710;2023-03-01T01:00:04;14.93;;;3.40;;
54307;SDS011;40208;39.778;2.710;2023-03-01T01:02:50;13.55;;;3.42;;
54307;SDS011;40208;39.778;2.710;2023-03-01T01:05:35;13.48;;;3.83;;
54307;SDS011;40208;39.778;2.710;2023-03-01T01:08:20;12.77;;;3.28;;
54307;SDS011;40208;39.778;2.710;2023-03-01T01:11:05;13.18;;;3.28;;
54307;SDS011;40208;39.778;2.710;2023-03-01T01:13:53;17.20;;;3.33;;
54307;SDS011;40208;39.778;2.710;2023-03-01T01:16:38;29.85;;;4.95;;
54307;SDS011;40208;39.778;2.710;2023-03-01T01:19:24;19.65;;;3.78;;
54307;SDS011;40208;39.778;2.710;2023-03-01T01:22:09;14.18;;;3.45;;
54307;SDS011;40208;39.778;2.710;2023-03-01T01:24:53;17.15;;;3.88;;
54307;SDS011;40208;39.778;2.710;2023-03-01T01:27:38;16.63;;;3.55;;
54307;SDS011;40208;39.778;2.710;2023-03-01T01:30:23;17.25;;;4.88;;
54307;SDS011;40208;39.778;2.710;2023-03-01T01:33:08;15.00;;;3.72;;
54307;SDS011;40208;39.778;2.710;2023-03-01T01:35:52;16.23;;;4.95;;
54307;SDS011;40208;39.778;2.710;2023-03-01T01:38:38;14.55;;;3.45;;
54307;SDS011;40208;39.778;2.710;2023-03-01T01:41:23;12.05;;;3.15;;
54307;SDS011;40208;39.778;2.710;2023-03-01T01:44:13;18.65;;;4.00;;
54307;SDS011;40208;39.778;2.710;2023-03-01T01:47:08;15.30;;;3.90;;
54307;SDS011;40208;39.778;2.710;2023-03-01T01:49:57;11.82;;;3.17;;
54307;SDS011;40208;39.778;2.710;2023-03-01T01:52:41;10.48;;;2.45;;
54307;SDS011;40208;39.778;2.710;2023-03-01T01:55:26;26.27;;;4.47;;
54307;SDS011;40208;39.778;2.710;2023-03-01T01:58:12;9.45;;;2.65;;
54307;SDS011;40208;39.778;2.710;2023-03-01T02:01:00;14.98;;;3.25;;
54307;SDS011;40208;39.778;2.710;2023-03-01T02:03:45;13.40;;;3.38;;
54307;SDS011;40208;39.778;2.710;2023-03-01T02:06:34;18.33;;;4.18;;
54307;SDS011;40208;39.778;2.710;2023-03-01T02:09:23;19.00;;;3.25;;
54307;SDS011;40208;39.778;2.710;2023-03-01T02:12:08;14.10;;;3.90;;
54307;SDS011;40208;39.778;2.710;2023-03-01T02:14:53;12.35;;;3.40;;
54307;SDS011;40208;39.778;2.710;2023-03-01T02:17:38;12.40;;;3.65;;
54307;SDS011;40208;39.778;2.710;2023-03-01T02:20:26;11.63;;;2.83;;
54307;SDS011;40208;39.778;2.710;2023-03-01T02:23:31;11.23;;;3.13;;
54307;SDS011;40208;39.778;2.710;2023-03-01T02:29:37;17.00;;;3.67;;
54307;SDS011;40208;39.778;2.710;2023-03-01T02:32:21;11.10;;;3.25;;
54307;SDS011;40208;39.778;2.710;2023-03-01T02:35:10;19.27;;;3.80;;
54307;SDS011;40208;39.778;2.710;2023-03-01T02:37:58;15.60;;;3.53;;
54307;SDS011;40208;39.778;2.710;2023-03-01T02:40:45;15.02;;;4.60;;
54307;SDS011;40208;39.778;2.710;2023-03-01T02:43:31;18.00;;;4.15;;
54307;SDS011;40208;39.778;2.710;2023-03-01T02:46:21;12.30;;;3.47;;
54307;SDS011;40208;39.778;2.710;2023-03-01T02:49:25;14.43;;;4.20;;
54307;SDS011;40208;39.778;2.710;2023-03-01T02:55:19;18.08;;;4.63;;
54307;SDS011;40208;39.778;2.710;2023-03-01T02:58:04;13.23;;;3.20;;
54307;SDS011;40208;39.778;2.710;2023-03-01T03:00:49;17.33;;;3.78;;
54307;SDS011;40208;39.778;2.710;2023-03-01T03:03:34;17.75;;;4.13;;
54307;SDS011;40208;39.778;2.710;2023-03-01T03:06:19;12.77;;;4.07;;
54307;SDS011;40208;39.778;2.710;2023-03-01T03:09:04;12.60;;;3.50;;
54307;SDS011;40208;39.778;2.710;2023-03-01T03:11:49;9.85;;;4.03;;
54307;SDS011;40208;39.778;2.710;2023-03-01T03:14:34;12.30;;;3.45;;
54307;SDS011;40208;39.778;2.710;2023-03-01T03:17:19;14.63;;;4.00;;
54307;SDS011;40208;39.778;2.710;2023-03-01T03:20:04;16.33;;;4.10;;
54307;SDS011;40208;39.778;2.710;2023-03-01T03:22:51;19.83;;;4.40;;
54307;SDS011;40208;39.778;2.710;2023-03-01T03:25:37;13.52;;;4.10;;
54307;SDS011;40208;39.778;2.710;2023-03-01T03:28:22;15.45;;;3.60;;
54307;SDS011;40208;39.778;2.710;2023-03-01T03:31:07;9.85;;;3.80;;
54307;SDS011;40208;39.778;2.710;2023-03-01T03:33:52;23.20;;;4.10;;
54307;SDS011;40208;39.778;2.710;2023-03-01T03:36:37;8.43;;;3.35;;
54307;SDS011;40208;39.778;2.710;2023-03-01T03:39:23;16.05;;;3.63;;
54307;SDS011;40208;39.778;2.710;2023-03-01T03:42:08;16.38;;;3.33;;
54307;SDS011;40208;39.778;2.710;2023-03-01T03:44:54;13.27;;;2.95;;
54307;SDS011;40208;39.778;2.710;2023-03-01T03:47:39;18.90;;;3.60;;
54307;SDS011;40208;39.778;2.710;2023-03-01T03:50:24;11.90;;;3.08;;
54307;SDS011;40208;39.778;2.710;2023-03-01T03:53:11;10.18;;;2.72;;
54307;SDS011;40208;39.778;2.710;2023-03-01T03:55:56;10.52;;;2.92;;
54307;SDS011;40208;39.778;2.710;2023-03-01T03:58:42;12.98;;;2.53;;
54307;SDS011;40208;39.778;2.710;2023-03-01T04:01:27;18.45;;;2.80;;
54307;SDS011;40208;39.778;2.710;2023-03-01T04:04:12;15.88;;;2.47;;
54307;SDS011;40208;39.778;2.710;2023-03-01T04:06:57;11.23;;;1.98;;
54307;SDS011;40208;39.778;2.710;2023-03-01T04:09:43;11.88;;;2.25;;
54307;SDS011;40208;39.778;2.710;2023-03-01T04:12:28;18.40;;;2.42;;
54307;SDS011;40208;39.778;2.710;2023-03-01T04:15:13;13.27;;;2.78;;
54307;SDS011;40208;39.778;2.710;2023-03-01T04:17:58;8.55;;;1.95;;
54307;SDS011;40208;39.778;2.710;2023-03-01T04:20:43;11.77;;;2.28;;
54307;SDS011;40208;39.778;2.710;2023-03-01T04:23:29;11.73;;;2.17;;
54307;SDS011;40208;39.778;2.710;2023-03-01T04:26:14;11.77;;;2.08;;
54307;SDS011;40208;39.778;2.710;2023-03-01T04:28:59;10.13;;;1.85;;
54307;SDS011;40208;39.778;2.710;2023-03-01T04:31:43;11.27;;;2.25;;
54307;SDS011;40208;39.778;2.710;2023-03-01T04:34:28;18.67;;;1.85;;
54307;SDS011;40208;39.778;2.710;2023-03-01T04:37:13;11.35;;;2.90;;
54307;SDS011;40208;39.778;2.710;2023-03-01T04:40:01;14.45;;;1.95;;
54307;SDS011;40208;39.778;2.710;2023-03-01T04:42:56;7.93;;;2.08;;
54307;SDS011;40208;39.778;2.710;2023-03-01T04:45:42;8.85;;;1.63;;
54307;SDS011;40208;39.778;2.710;2023-03-01T04:48:27;11.25;;;2.00;;
54307;SDS011;40208;39.778;2.710;2023-03-01T04:51:12;9.07;;;1.85;;
54307;SDS011;40208;39.778;2.710;2023-03-01T04:54:00;12.40;;;2.10;;
54307;SDS011;40208;39.778;2.710;2023-03-01T04:56:45;7.00;;;1.95;;
54307;SDS011;40208;39.778;2.710;2023-03-01T04:59:30;12.80;;;2.03;;
54307;SDS011;40208;39.778;2.710;2023-03-01T05:02:15;11.82;;;1.85;;
54307;SDS011;40208;39.778;2.710;2023-03-01T05:05:00;8.20;;;1.90;;
54307;SDS011;40208;39.778;2.710;2023-03-01T05:07:45;8.95;;;2.10;;
54307;SDS011;40208;39.778;2.710;2023-03-01T05:10:30;14.05;;;1.75;;
54307;SDS011;40208;39.778;2.710;2023-03-01T05:13:16;9.23;;;1.70;;
54307;SDS011;40208;39.778;2.710;2023-03-01T05:16:06;11.48;;;2.10;;
54307;SDS011;40208;39.778;2.710;2023-03-01T05:18:55;13.95;;;2.35;;
54307;SDS011;40208;39.778;2.710;2023-03-01T05:21:42;10.38;;;2.35;;
54307;SDS011;40208;39.778;2.710;2023-03-01T05:24:45;16.65;;;2.88;;
54307;SDS011;40208;39.778;2.710;2023-03-01T05:27:31;6.65;;;2.10;;
54307;SDS011;40208;39.778;2.710;2023-03-01T05:30:15;5.63;;;2.00;;
54307;SDS011;40208;39.778;2.710;2023-03-01T05:33:02;5.88;;;1.98;;
54307;SDS011;40208;39.778;2.710;2023-03-01T05:35:47;6.80;;;2.20;;
54307;SDS011;40208;39.778;2.710;2023-03-01T05:38:32;8.88;;;2.53;;
54307;SDS011;40208;39.778;2.710;2023-03-01T05:41:18;8.20;;;2.25;;
54307;SDS011;40208;39.778;2.710;2023-03-01T05:44:02;8.15;;;2.65;;
54307;SDS011;40208;39.778;2.710;2023-03-01T05:46:49;7.28;;;2.83;;
54307;SDS011;40208;39.778;2.710;2023-03-01T05:49:34;8.77;;;3.05;;
54307;SDS011;40208;39.778;2.710;2023-03-01T05:52:19;10.23;;;3.03;;
54307;SDS011;40208;39.778;2.710;2023-03-01T05:55:04;9.70;;;2.83;;
54307;SDS011;40208;39.778;2.710;2023-03-01T05:57:49;8.63;;;2.88;;
54307;SDS011;40208;39.778;2.710;2023-03-01T06:00:35;11.10;;;2.25;;
54307;SDS011;40208;39.778;2.710;2023-03-01T06:03:20;9.02;;;2.25;;
54307;SDS011;40208;39.778;2.710;2023-03-01T06:06:05;11.82;;;2.92;;
54307;SDS011;40208;39.778;2.710;2023-03-01T06:08:50;11.80;;;2.67;;
54307;SDS011;40208;39.778;2.710;2023-03-01T06:11:36;9.10;;;2.72;;
54307;SDS011;40208;39.778;2.710;2023-03-01T06:14:21;15.27;;;2.88;;
54307;SDS011;40208;39.778;2.710;2023-03-01T06:17:06;9.10;;;2.30;;
54307;SDS011;40208;39.778;2.710;2023-03-01T06:19:51;12.10;;;5.15;;
54307;SDS011;40208;39.778;2.710;2023-03-01T06:22:36;16.10;;;5.78;;
54307;SDS011;40208;39.778;2.710;2023-03-01T06:25:22;12.82;;;3.35;;
54307;SDS011;40208;39.778;2.710;2023-03-01T06:28:09;14.82;;;4.13;;
54307;SDS011;40208;39.778;2.710;2023-03-01T06:30:54;9.18;;;3.67;;
54307;SDS011;40208;39.778;2.710;2023-03-01T06:33:39;12.95;;;4.07;;
54307;SDS011;40208;39.778;2.710;2023-03-01T06:36:24;8.77;;;4.03;;
54307;SDS011;40208;39.778;2.710;2023-03-01T06:39:09;10.45;;;4.95;;
54307;SDS011;40208;39.778;2.710;2023-03-01T06:41:54;8.48;;;3.90;;
54307;SDS011;40208;39.778;2.710;2023-03-01T06:44:39;18.52;;;6.63;;
54307;SDS011;40208;39.778;2.710;2023-03-01T06:47:24;11.68;;;4.65;;
54307;SDS011;40208;39.778;2.710;2023-03-01T06:50:09;11.18;;;5.32;;
54307;SDS011;40208;39.778;2.710;2023-03-01T06:52:55;14.65;;;5.10;;
54307;SDS011;40208;39.778;2.710;2023-03-01T06:55:41;12.88;;;4.28;;
54307;SDS011;40208;39.778;2.710;2023-03-01T06:58:26;11.18;;;5.10;;
54307;SDS011;40208;39.778;2.710;2023-03-01T07:01:11;12.70;;;4.97;;
54307;SDS011;40208;39.778;2.710;2023-03-01T07:03:55;13.82;;;6.55;;
54307;SDS011;40208;39.778;2.710;2023-03-01T07:06:40;15.20;;;4.57;;
54307;SDS011;40208;39.778;2.710;2023-03-01T07:09:25;10.52;;;5.55;;
54307;SDS011;40208;39.778;2.710;2023-03-01T07:12:10;11.38;;;4.85;;
54307;SDS011;40208;39.778;2.710;2023-03-01T07:14:55;14.15;;;5.50;;
54307;SDS011;40208;39.778;2.710;2023-03-01T07:17:40;31.38;;;15.85;;
54307;SDS011;40208;39.778;2.710;2023-03-01T07:20:25;40.60;;;18.88;;
54307;SDS011;40208;39.778;2.710;2023-03-01T07:23:09;29.33;;;11.88;;
54307;SDS011;40208;39.778;2.710;2023-03-01T07:25:54;37.65;;;13.02;;
54307;SDS011;40208;39.778;2.710;2023-03-01T07:28:39;28.10;;;10.30;;
54307;SDS011;40208;39.778;2.710;2023-03-01T07:31:24;13.02;;;5.68;;
54307;SDS011;40208;39.778;2.710;2023-03-01T07:34:12;15.73;;;5.72;;
54307;SDS011;40208;39.778;2.710;2023-03-01T07:36:57;25.50;;;11.88;;
54307;SDS011;40208;39.778;2.710;2023-03-01T07:39:42;117.65;;;52.13;;
54307;SDS011;40208;39.778;2.710;2023-03-01T07:42:26;248.38;;;104.65;;
54307;SDS011;40208;39.778;2.710;2023-03-01T07:45:12;60.40;;;27.90;;
54307;SDS011;40208;39.778;2.710;2023-03-01T07:47:58;42.22;;;20.17;;
54307;SDS011;40208;39.778;2.710;2023-03-01T07:50:43;104.60;;;49.78;;
54307;SDS011;40208;39.778;2.710;2023-03-01T07:53:28;78.70;;;37.42;;
54307;SDS011;40208;39.778;2.710;2023-03-01T07:56:13;25.23;;;12.32;;
54307;SDS011;40208;39.778;2.710;2023-03-01T07:59:00;18.48;;;8.77;;
54307;SDS011;40208;39.778;2.710;2023-03-01T08:01:45;20.23;;;12.05;;
54307;SDS011;40208;39.778;2.710;2023-03-01T08:04:30;18.73;;;9.90;;
54307;SDS011;40208;39.778;2.710;2023-03-01T08:07:17;16.65;;;7.80;;
54307;SDS011;40208;39.778;2.710;2023-03-01T08:10:02;18.73;;;8.27;;
54307;SDS011;40208;39.778;2.710;2023-03-01T08:12:50;24.27;;;9.85;;
54307;SDS011;40208;39.778;2.710;2023-03-01T08:15:37;19.48;;;9.57;;
54307;SDS011;40208;39.778;2.710;2023-03-01T08:18:21;19.98;;;10.00;;
54307;SDS011;40208;39.778;2.710;2023-03-01T08:21:08;21.35;;;11.38;;
54307;SDS011;40208;39.778;2.710;2023-03-01T08:23:55;23.38;;;10.45;;
54307;SDS011;40208;39.778;2.710;2023-03-01T08:26:40;20.33;;;11.45;;
54307;SDS011;40208;39.778;2.710;2023-03-01T08:29:25;23.77;;;11.75;;
54307;SDS011;40208;39.778;2.710;2023-03-01T08:32:09;19.70;;;10.27;;
54307;SDS011;40208;39.778;2.710;2023-03-01T08:34:54;17.33;;;10.98;;
54307;SDS011;40208;39.778;2.710;2023-03-01T08:37:39;19.42;;;8.82;;
54307;SDS011;40208;39.778;2.710;2023-03-01T08:40:24;16.13;;;9.15;;
54307;SDS011;40208;39.778;2.710;2023-03-01T08:43:09;14.25;;;7.85;;
54307;SDS011;40208;39.778;2.710;2023-03-01T08:45:54;13.18;;;7.30;;
54307;SDS011;40208;39.778;2.710;2023-03-01T08:48:40;19.33;;;5.95;;
54307;SDS011;40208;39.778;2.710;2023-03-01T08:51:27;12.38;;;6.20;;
54307;SDS011;40208;39.778;2.710;2023-03-01T08:54:14;14.05;;;5.95;;
54307;SDS011;40208;39.778;2.710;2023-03-01T08:57:01;7.85;;;3.83;;
54307;SDS011;40208;39.778;2.710;2023-03-01T08:59:47;13.52;;;4.60;;
54307;SDS011;40208;39.778;2.710;2023-03-01T09:02:32;13.70;;;3.42;;
54307;SDS011;40208;39.778;2.710;2023-03-01T09:05:17;9.48;;;3.53;;
54307;SDS011;40208;39.778;2.710;2023-03-01T09:08:02;15.77;;;3.63;;
54307;SDS011;40208;39.778;2.710;2023-03-01T09:10:48;7.75;;;2.95;;
54307;SDS011;40208;39.778;2.710;2023-03-01T09:13:33;10.00;;;3.95;;
54307;SDS011;40208;39.778;2.710;2023-03-01T09:16:20;32.78;;;9.32;;
54307;SDS011;40208;39.778;2.710;2023-03-01T09:19:06;25.45;;;8.10;;
54307;SDS011;40208;39.778;2.710;2023-03-01T09:21:51;20.98;;;7.82;;
54307;SDS011;40208;39.778;2.710;2023-03-01T09:24:40;21.17;;;6.65;;
54307;SDS011;40208;39.778;2.710;2023-03-01T09:27:25;19.20;;;5.50;;
54307;SDS011;40208;39.778;2.710;2023-03-01T09:30:10;14.10;;;3.97;;
54307;SDS011;40208;39.778;2.710;2023-03-01T09:32:56;13.80;;;4.05;;
54307;SDS011;40208;39.778;2.710;2023-03-01T09:35:41;18.05;;;4.97;;
54307;SDS011;40208;39.778;2.710;2023-03-01T09:38:30;14.20;;;3.75;;
54307;SDS011;40208;39.778;2.710;2023-03-01T09:47:34;10.93;;;3.22;;
54307;SDS011;40208;39.778;2.710;2023-03-01T09:50:20;13.38;;;2.95;;
54307;SDS011;40208;39.778;2.710;2023-03-01T09:53:07;5.90;;;3.40;;
54307;SDS011;40208;39.778;2.710;2023-03-01T09:56:05;10.52;;;4.80;;
54307;SDS011;40208;39.778;2.710;2023-03-01T10:01:59;10.75;;;4.03;;
54307;SDS011;40208;39.778;2.710;2023-03-01T10:05:14;8.30;;;3.33;;
54307;SDS011;40208;39.778;2.710;2023-03-01T10:14:33;5.53;;;2.88;;
54307;SDS011;40208;39.778;2.710;2023-03-01T10:20:25;7.97;;;1.98;;
54307;SDS011;40208;39.778;2.710;2023-03-01T10:23:14;4.40;;;1.70;;
54307;SDS011;40208;39.778;2.710;2023-03-01T10:31:58;7.82;;;2.50;;
54307;SDS011;40208;39.778;2.710;2023-03-01T10:34:43;7.43;;;2.28;;
54307;SDS011;40208;39.778;2.710;2023-03-01T10:37:28;3.20;;;1.42;;
54307;SDS011;40208;39.778;2.710;2023-03-01T10:40:14;9.38;;;1.98;;
54307;SDS011;40208;39.778;2.710;2023-03-01T10:42:59;4.95;;;1.55;;
54307;SDS011;40208;39.778;2.710;2023-03-01T10:45:46;10.43;;;1.83;;
54307;SDS011;40208;39.778;2.710;2023-03-01T10:48:31;8.63;;;2.92;;
54307;SDS011;40208;39.778;2.710;2023-03-01T10:51:17;9.65;;;4.28;;
54307;SDS011;40208;39.778;2.710;2023-03-01T10:54:04;11.65;;;4.40;;
54307;SDS011;40208;39.778;2.710;2023-03-01T10:57:04;9.05;;;4.38;;
54307;SDS011;40208;39.778;2.710;2023-03-01T10:59:51;19.10;;;10.40;;
54307;SDS011;40208;39.778;2.710;2023-03-01T11:03:00;16.05;;;7.53;;
54307;SDS011;40208;39.778;2.710;2023-03-01T11:08:45;11.10;;;4.38;;
54307;SDS011;40208;39.778;2.710;2023-03-01T11:11:32;8.38;;;2.95;;
54307;SDS011;40208;39.778;2.710;2023-03-01T11:14:23;12.02;;;3.35;;
54307;SDS011;40208;39.778;2.710;2023-03-01T11:17:17;9.43;;;2.90;;
54307;SDS011;40208;39.778;2.710;2023-03-01T11:22:59;13.00;;;3.70;;
54307;SDS011;40208;39.778;2.710;2023-03-01T11:25:56;4.47;;;2.30;;
54307;SDS011;40208;39.778;2.710;2023-03-01T11:28:47;9.38;;;2.83;;
54307;SDS011;40208;39.778;2.710;2023-03-01T11:31:36;7.30;;;2.60;;
54307;SDS011;40208;39.778;2.710;2023-03-01T11:34:35;73.78;;;22.65;;
54307;SDS011;40208;39.778;2.710;2023-03-01T11:43:19;92.50;;;34.35;;
54307;SDS011;40208;39.778;2.710;2023-03-01T11:49:31;15.90;;;4.82;;
54307;SDS011;40208;39.778;2.710;2023-03-01T11:52:27;17.00;;;5.70;;
54307;SDS011;40208;39.778;2.710;2023-03-01T11:58:41;4.93;;;2.15;;
54307;SDS011;40208;39.778;2.710;2023-03-01T12:42:28;11.18;;;5.07;;
54307;SDS011;40208;39.778;2.710;2023-03-01T12:45:23;9.48;;;3.45;;
54307;SDS011;40208;39.778;2.710;2023-03-01T12:51:40;28.50;;;15.07;;
54307;SDS011;40208;39.778;2.710;2023-03-01T12:54:33;21.42;;;9.35;;
54307;SDS011;40208;39.778;2.710;2023-03-01T13:03:04;18.98;;;7.22;;
54307;SDS011;40208;39.778;2.710;2023-03-01T13:15:32;17.15;;;5.90;;
54307;SDS011;40208;39.778;2.710;2023-03-01T13:21:03;15.70;;;7.45;;
54307;SDS011;40208;39.778;2.710;2023-03-01T13:23:50;13.38;;;6.78;;
54307;SDS011;40208;39.778;2.710;2023-03-01T13:27:08;10.93;;;5.75;;
54307;SDS011;40208;39.778;2.710;2023-03-01T13:29:55;15.25;;;6.55;;
54307;SDS011;40208;39.778;2.710;2023-03-01T13:32:50;12.02;;;7.68;;
54307;SDS011;40208;39.778;2.710;2023-03-01T13:35:41;18.48;;;9.38;;
54307;SDS011;40208;39.778;2.710;2023-03-01T13:38:47;24.08;;;13.63;;
54307;SDS011;40208;39.778;2.710;2023-03-01T13:44:32;27.33;;;11.02;;
54307;SDS011;40208;39.778;2.710;2023-03-01T13:47:21;21.17;;;8.85;;
54307;SDS011;40208;39.778;2.710;2023-03-01T13:50:06;15.50;;;7.15;;
54307;SDS011;40208;39.778;2.710;2023-03-01T13:52:59;18.08;;;6.40;;
54307;SDS011;40208;39.778;2.710;2023-03-01T13:55:47;10.40;;;4.43;;
54307;SDS011;40208;39.778;2.710;2023-03-01T14:01:52;10.23;;;4.03;;
54307;SDS011;40208;39.778;2.710;2023-03-01T14:04:39;10.23;;;2.78;;
54307;SDS011;40208;39.778;2.710;2023-03-01T14:07:25;9.07;;;4.00;;
54307;SDS011;40208;39.778;2.710;2023-03-01T14:10:14;9.85;;;2.72;;
54307;SDS011;40208;39.778;2.710;2023-03-01T14:13:13;7.47;;;2.78;;
54307;SDS011;40208;39.778;2.710;2023-03-01T14:19:18;8.32;;;3.15;;
54307;SDS011;40208;39.778;2.710;2023-03-01T14:25:00;10.27;;;3.17;;
54307;SDS011;40208;39.778;2.710;2023-03-01T14:27:51;7.38;;;2.95;;
54307;SDS011;40208;39.778;2.710;2023-03-01T14:30:43;8.23;;;2.63;;
54307;SDS011;40208;39.778;2.710;2023-03-01T14:33:31;5.70;;;1.80;;
54307;SDS011;40208;39.778;2.710;2023-03-01T14:36:26;7.88;;;2.28;;
54307;SDS011;40208;39.778;2.710;2023-03-01T14:39:17;7.82;;;3.50;;
54307;SDS011;40208;39.778;2.710;2023-03-01T14:42:04;14.88;;;6.30;;
54307;SDS011;40208;39.778;2.710;2023-03-01T14:44:50;17.90;;;6.72;;
54307;SDS011;40208;39.778;2.710;2023-03-01T14:47:37;12.43;;;6.22;;
54307;SDS011;40208;39.778;2.710;2023-03-01T14:53:17;11.88;;;4.53;;
54307;SDS011;40208;39.778;2.710;2023-03-01T14:56:12;7.43;;;3.88;;
54307;SDS011;40208;39.778;2.710;2023-03-01T14:58:59;7.35;;;2.97;;
54307;SDS011;40208;39.778;2.710;2023-03-01T15:01:43;9.13;;;3.65;;
54307;SDS011;40208;39.778;2.710;2023-03-01T15:04:29;5.55;;;2.38;;
54307;SDS011;40208;39.778;2.710;2023-03-01T15:07:15;6.72;;;2.40;;
54307;SDS011;40208;39.778;2.710;2023-03-01T15:10:01;9.05;;;3.45;;
54307;SDS011;40208;39.778;2.710;2023-03-01T15:12:50;12.32;;;4.05;;
54307;SDS011;40208;39.778;2.710;2023-03-01T15:15:41;11.38;;;4.45;;
54307;SDS011;40208;39.778;2.710;2023-03-01T15:18:31;9.43;;;3.80;;
54307;SDS011;40208;39.778;2.710;2023-03-01T15:24:14;5.65;;;2.35;;
54307;SDS011;40208;39.778;2.710;2023-03-01T15:27:05;8.82;;;2.80;;
54307;SDS011;40208;39.778;2.710;2023-03-01T15:29:59;8.55;;;3.17;;
54307;SDS011;40208;39.778;2.710;2023-03-01T15:32:46;6.88;;;2.05;;
54307;SDS011;40208;39.778;2.710;2023-03-01T15:35:38;7.88;;;3.30;;
54307;SDS011;40208;39.778;2.710;2023-03-01T15:38:49;5.88;;;2.38;;
54307;SDS011;40208;39.778;2.710;2023-03-01T15:41:46;7.75;;;2.47;;
54307;SDS011;40208;39.778;2.710;2023-03-01T15:44:34;7.22;;;2.28;;
54307;SDS011;40208;39.778;2.710;2023-03-01T15:47:25;4.97;;;2.05;;
54307;SDS011;40208;39.778;2.710;2023-03-01T15:50:16;5.55;;;2.10;;
54307;SDS011;40208;39.778;2.710;2023-03-01T15:56:09;4.38;;;1.75;;
54307;SDS011;40208;39.778;2.710;2023-03-01T15:58:57;5.60;;;2.00;;
54307;SDS011;40208;39.778;2.710;2023-03-01T16:01:43;6.55;;;1.80;;
54307;SDS011;40208;39.778;2.710;2023-03-01T16:04:29;6.95;;;1.80;;
54307;SDS011;40208;39.778;2.710;2023-03-01T16:07:14;7.22;;;2.22;;
54307;SDS011;40208;39.778;2.710;2023-03-01T16:10:00;6.07;;;1.92;;
54307;SDS011;40208;39.778;2.710;2023-03-01T16:12:45;6.22;;;2.10;;
54307;SDS011;40208;39.778;2.710;2023-03-01T16:15:32;6.45;;;2.10;;
54307;SDS011;40208;39.778;2.710;2023-03-01T16:18:22;8.75;;;1.77;;
54307;SDS011;40208;39.778;2.710;2023-03-01T16:21:08;10.98;;;4.85;;
54307;SDS011;40208;39.778;2.710;2023-03-01T16:23:56;8.65;;;3.10;;
54307;SDS011;40208;39.778;2.710;2023-03-01T16:26:42;8.80;;;3.22;;
54307;SDS011;40208;39.778;2.710;2023-03-01T16:29:27;4.65;;;2.17;;
54307;SDS011;40208;39.778;2.710;2023-03-01T16:32:13;7.03;;;2.05;;
54307;SDS011;40208;39.778;2.710;2023-03-01T16:34:58;4.45;;;1.70;;
54307;SDS011;40208;39.778;2.710;2023-03-01T16:37:43;4.03;;;1.55;;
54307;SDS011;40208;39.778;2.710;2023-03-01T16:40:29;7.18;;;2.53;;
54307;SDS011;40208;39.778;2.710;2023-03-01T16:43:14;5.10;;;2.00;;
54307;SDS011;40208;39.778;2.710;2023-03-01T16:45:59;7.90;;;2.25;;
54307;SDS011;40208;39.778;2.710;2023-03-01T16:48:45;9.07;;;1.60;;
54307;SDS011;40208;39.778;2.710;2023-03-01T16:51:30;6.68;;;1.95;;
54307;SDS011;40208;39.778;2.710;2023-03-01T16:54:16;4.80;;;1.98;;
54307;SDS011;40208;39.778;2.710;2023-03-01T16:57:01;7.07;;;1.73;;
54307;SDS011;40208;39.778;2.710;2023-03-01T16:59:46;7.90;;;1.30;;
54307;SDS011;40208;39.778;2.710;2023-03-01T17:02:32;7.25;;;1.52;;
54307;SDS011;40208;39.778;2.710;2023-03-01T17:05:17;4.68;;;1.55;;
54307;SDS011;40208;39.778;2.710;2023-03-01T17:08:05;7.88;;;2.30;;
54307;SDS011;40208;39.778;2.710;2023-03-01T17:10:50;10.20;;;3.80;;
54307;SDS011;40208;39.778;2.710;2023-03-01T17:13:35;8.70;;;3.78;;
54307;SDS011;40208;39.778;2.710;2023-03-01T17:16:21;10.77;;;3.90;;
54307;SDS011;40208;39.778;2.710;2023-03-01T17:19:06;7.75;;;4.40;;
54307;SDS011;40208;39.778;2.710;2023-03-01T17:21:52;7.68;;;3.53;;
54307;SDS011;40208;39.778;2.710;2023-03-01T17:24:37;7.13;;;3.35;;
54307;SDS011;40208;39.778;2.710;2023-03-01T17:27:23;11.88;;;4.95;;
54307;SDS011;40208;39.778;2.710;2023-03-01T17:30:09;16.80;;;9.45;;
54307;SDS011;40208;39.778;2.710;2023-03-01T17:32:55;20.10;;;11.40;;
54307;SDS011;40208;39.778;2.710;2023-03-01T17:35:40;33.72;;;15.63;;
54307;SDS011;40208;39.778;2.710;2023-03-01T17:38:25;23.90;;;13.00;;
54307;SDS011;40208;39.778;2.710;2023-03-01T17:41:10;26.77;;;14.05;;
54307;SDS011;40208;39.778;2.710;2023-03-01T17:43:55;24.52;;;14.10;;
54307;SDS011;40208;39.778;2.710;2023-03-01T17:46:40;26.33;;;13.90;;
54307;SDS011;40208;39.778;2.710;2023-03-01T17:49:25;27.98;;;14.82;;
54307;SDS011;40208;39.778;2.710;2023-03-01T17:52:10;28.55;;;15.00;;
54307;SDS011;40208;39.778;2.710;2023-03-01T17:54:55;22.38;;;13.73;;
54307;SDS011;40208;39.778;2.710;2023-03-01T17:57:40;24.98;;;14.45;;
54307;SDS011;40208;39.778;2.710;2023-03-01T18:00:25;22.20;;;14.52;;
54307;SDS011;40208;39.778;2.710;2023-03-01T18:03:12;37.67;;;21.67;;
54307;SDS011;40208;39.778;2.710;2023-03-01T18:05:57;48.40;;;29.90;;
54307;SDS011;40208;39.778;2.710;2023-03-01T18:08:42;48.25;;;27.08;;
54307;SDS011;40208;39.778;2.710;2023-03-01T18:11:29;41.05;;;21.17;;
54307;SDS011;40208;39.778;2.710;2023-03-01T18:14:13;29.25;;;16.52;;
54307;SDS011;40208;39.778;2.710;2023-03-01T18:16:59;30.00;;;17.75;;
54307;SDS011;40208;39.778;2.710;2023-03-01T18:19:46;28.35;;;15.48;;
54307;SDS011;40208;39.778;2.710;2023-03-01T18:22:31;30.67;;;19.55;;
54307;SDS011;40208;39.778;2.710;2023-03-01T18:25:17;21.88;;;14.18;;
54307;SDS011;40208;39.778;2.710;2023-03-01T18:28:06;39.40;;;17.50;;
54307;SDS011;40208;39.778;2.710;2023-03-01T18:31:00;32.72;;;18.90;;
54307;SDS011;40208;39.778;2.710;2023-03-01T18:33:48;34.45;;;18.35;;
54307;SDS011;40208;39.778;2.710;2023-03-01T18:36:38;39.17;;;23.42;;
54307;SDS011;40208;39.778;2.710;2023-03-01T18:39:23;39.83;;;21.38;;
54307;SDS011;40208;39.778;2.710;2023-03-01T18:42:07;37.78;;;21.33;;
54307;SDS011;40208;39.778;2.710;2023-03-01T18:44:52;27.13;;;15.90;;
54307;SDS011;40208;39.778;2.710;2023-03-01T18:47:37;28.05;;;13.48;;